createdAt,value
2023-05-21T00:00:32.092Z,13.79
2023-05-21T00:01:32.091Z,13.79
2023-05-21T00:02:32.107Z,13.78
2023-05-21T00:03:32.162Z,13.78
2023-05-21T00:04:32.057Z,13.78
2023-05-21T00:05:32.129Z,13.78
2023-05-21T00:06:32.077Z,13.79
2023-05-21T00:07:32.047Z,13.78
2023-05-21T00:08:32.010Z,13.78
2023-05-21T00:09:32.009Z,13.78
2023-05-21T00:10:32.138Z,13.77
2023-05-21T00:11:32.051Z,13.77
2023-05-21T00:12:31.979Z,13.75
2023-05-21T00:13:31.974Z,13.77
2023-05-21T00:14:31.974Z,13.77
2023-05-21T00:15:31.937Z,13.75
2023-05-21T00:16:31.967Z,13.77
2023-05-21T00:17:31.956Z,13.77
2023-05-21T00:18:31.920Z,13.77
2023-05-21T00:19:31.970Z,13.78
2023-05-21T00:20:31.904Z,13.79
2023-05-21T00:21:31.888Z,13.81
2023-05-21T00:22:31.876Z,13.78
2023-05-21T00:23:31.892Z,13.81
2023-05-21T00:24:31.825Z,13.81
2023-05-21T00:25:31.862Z,13.81
2023-05-21T00:26:31.823Z,13.81
2023-05-21T00:27:31.843Z,13.81
2023-05-21T00:28:31.829Z,13.83
2023-05-21T00:29:31.786Z,13.85
2023-05-21T00:30:31.818Z,13.81
2023-05-21T00:31:31.834Z,13.81
2023-05-21T00:32:31.786Z,13.83
2023-05-21T00:33:31.765Z,13.83
2023-05-21T00:34:31.729Z,13.83
2023-05-21T00:35:31.761Z,13.85
2023-05-21T00:36:31.773Z,13.83
2023-05-21T00:37:31.702Z,13.83
2023-05-21T00:38:31.704Z,13.83
2023-05-21T00:39:31.722Z,13.81
2023-05-21T00:40:31.682Z,13.78
2023-05-21T00:41:31.683Z,13.78
2023-05-21T00:42:31.667Z,13.75
2023-05-21T00:43:31.674Z,13.74
2023-05-21T00:44:31.641Z,13.74
2023-05-21T00:45:31.751Z,13.71
2023-05-21T00:46:31.657Z,13.72
2023-05-21T00:47:31.680Z,13.74
2023-05-21T00:48:31.643Z,13.72
2023-05-21T00:49:31.594Z,13.74
2023-05-21T00:50:31.576Z,13.72
2023-05-21T00:51:31.640Z,13.77
2023-05-21T00:52:31.564Z,13.75
2023-05-21T00:53:31.560Z,13.74
2023-05-21T00:54:31.549Z,13.72
2023-05-21T00:55:31.550Z,13.72
2023-05-21T00:56:31.522Z,13.72
2023-05-21T00:57:31.536Z,13.72
2023-05-21T00:58:31.551Z,13.72
2023-05-21T00:59:31.505Z,13.72
2023-05-21T01:00:32.354Z,13.71
2023-05-21T01:01:31.468Z,13.72
2023-05-21T01:02:31.543Z,13.75
2023-05-21T01:03:31.505Z,13.72
2023-05-21T01:04:31.425Z,13.74
2023-05-21T01:05:31.434Z,13.70
2023-05-21T01:06:31.402Z,13.72
2023-05-21T01:07:31.417Z,13.71
2023-05-21T01:08:31.435Z,13.71
2023-05-21T01:09:31.395Z,13.68
2023-05-21T01:10:31.371Z,13.68
2023-05-21T01:11:31.388Z,13.65
2023-05-21T01:12:31.349Z,13.67
2023-05-21T01:13:31.365Z,13.67
2023-05-21T01:14:31.357Z,13.63
2023-05-21T01:15:31.322Z,13.62
2023-05-21T01:16:31.349Z,13.57
2023-05-21T01:17:31.319Z,13.56
2023-05-21T01:18:31.406Z,13.56
2023-05-21T01:19:31.376Z,13.54
2023-05-21T01:20:31.249Z,13.56
2023-05-21T01:21:31.308Z,13.53
2023-05-21T01:22:31.267Z,13.53
2023-05-21T01:23:31.241Z,13.50
2023-05-21T01:24:31.226Z,13.53
2023-05-21T01:25:31.262Z,13.52
2023-05-21T01:26:31.213Z,13.52
2023-05-21T01:27:31.218Z,13.49
2023-05-21T01:28:31.186Z,13.52
2023-05-21T01:29:31.253Z,13.52
2023-05-21T01:30:31.190Z,13.53
2023-05-21T01:31:31.245Z,13.50
2023-05-21T01:32:31.175Z,13.47
2023-05-21T01:33:31.201Z,13.47
2023-05-21T01:34:31.139Z,13.46
2023-05-21T01:35:31.184Z,13.42
2023-05-21T01:36:31.138Z,13.42
2023-05-21T01:37:31.097Z,13.41
2023-05-21T01:38:31.114Z,13.41
2023-05-21T01:39:31.100Z,13.41
2023-05-21T01:40:31.070Z,13.42
2023-05-21T01:41:31.948Z,13.41
2023-05-21T01:42:31.065Z,13.42
2023-05-21T01:43:31.080Z,13.42
2023-05-21T01:44:31.047Z,13.44
2023-05-21T01:45:31.809Z,13.42
2023-05-21T01:46:31.058Z,13.42
2023-05-21T01:47:31.012Z,13.46
2023-05-21T01:48:31.008Z,13.44
2023-05-21T01:49:30.990Z,13.42
2023-05-21T01:50:30.964Z,13.44
2023-05-21T01:51:31.131Z,13.44
2023-05-21T01:52:30.915Z,13.44
2023-05-21T01:53:30.941Z,13.44
2023-05-21T01:54:30.921Z,13.41
2023-05-21T01:55:30.921Z,13.39
2023-05-21T01:56:30.892Z,13.39
2023-05-21T01:57:30.916Z,13.38
2023-05-21T01:58:30.874Z,13.38
2023-05-21T01:59:30.889Z,13.38
2023-05-21T02:00:30.870Z,13.39
2023-05-21T02:01:30.890Z,13.39
2023-05-21T02:02:30.883Z,13.39
2023-05-21T02:03:30.886Z,13.37
2023-05-21T02:04:30.809Z,13.35
2023-05-21T02:05:30.828Z,13.30
2023-05-21T02:06:30.777Z,13.30
2023-05-21T02:07:30.794Z,13.30
2023-05-21T02:08:30.777Z,13.30
2023-05-21T02:09:30.744Z,13.30
2023-05-21T02:10:30.767Z,13.31
2023-05-21T02:11:30.753Z,13.31
2023-05-21T02:12:30.728Z,13.33
2023-05-21T02:13:30.729Z,13.31
2023-05-21T02:14:30.716Z,13.33
2023-05-21T02:15:30.673Z,13.33
2023-05-21T02:16:30.797Z,13.33
2023-05-21T02:17:30.887Z,13.30
2023-05-21T02:18:30.684Z,13.31
2023-05-21T02:19:30.739Z,13.28
2023-05-21T02:20:30.712Z,13.27
2023-05-21T02:21:30.642Z,13.27
2023-05-21T02:22:30.660Z,13.28
2023-05-21T02:23:30.619Z,13.28
2023-05-21T02:24:30.619Z,13.25
2023-05-21T02:25:30.609Z,13.25
2023-05-21T02:26:30.604Z,13.25
2023-05-21T02:27:30.588Z,13.23
2023-05-21T02:28:30.595Z,13.23
2023-05-21T02:29:30.532Z,13.25
2023-05-21T02:30:30.556Z,13.23
2023-05-21T02:31:30.518Z,13.22
2023-05-21T02:32:30.637Z,13.22
2023-05-21T02:33:30.508Z,13.20
2023-05-21T02:34:30.605Z,13.22
2023-05-21T02:35:30.982Z,13.19
2023-05-21T02:36:30.501Z,13.19
2023-05-21T02:37:30.465Z,13.18
2023-05-21T02:38:30.500Z,13.18
2023-05-21T02:39:30.462Z,13.16
2023-05-21T02:40:30.474Z,13.16
2023-05-21T02:41:30.432Z,13.15
2023-05-21T02:42:30.448Z,13.16
2023-05-21T02:43:30.458Z,13.15
2023-05-21T02:44:30.425Z,13.13
2023-05-21T02:45:30.438Z,13.13
2023-05-21T02:46:30.504Z,13.12
2023-05-21T02:47:30.471Z,13.11
2023-05-21T02:48:30.371Z,13.11
2023-05-21T02:49:30.434Z,13.09
2023-05-21T02:50:30.358Z,13.08
2023-05-21T02:51:30.272Z,13.05
2023-05-21T02:52:30.339Z,13.08
2023-05-21T02:53:30.256Z,13.03
2023-05-21T02:54:30.282Z,13.01
2023-05-21T02:55:30.285Z,12.98
2023-05-21T02:56:30.257Z,12.95
2023-05-21T02:57:30.220Z,12.97
2023-05-21T02:58:30.208Z,12.94
2023-05-21T02:59:30.316Z,12.94
2023-05-21T03:00:30.205Z,12.94
2023-05-21T03:01:30.215Z,12.93
2023-05-21T03:02:30.334Z,12.91
2023-05-21T03:03:30.349Z,12.90
2023-05-21T03:04:30.177Z,12.87
2023-05-21T03:05:30.145Z,12.86
2023-05-21T03:06:30.127Z,12.83
2023-05-21T03:07:30.156Z,12.86
2023-05-21T03:08:30.125Z,12.82
2023-05-21T03:09:30.111Z,12.83
2023-05-21T03:10:30.084Z,12.82
2023-05-21T03:11:30.080Z,12.82
2023-05-21T03:12:30.102Z,12.80
2023-05-21T03:13:30.122Z,12.79
2023-05-21T03:14:30.046Z,12.78
2023-05-21T03:15:30.080Z,12.76
2023-05-21T03:16:30.031Z,12.78
2023-05-21T03:17:30.095Z,12.78
2023-05-21T03:18:30.045Z,12.79
2023-05-21T03:19:30.027Z,12.79
2023-05-21T03:20:29.985Z,12.79
2023-05-21T03:21:30.012Z,12.78
2023-05-21T03:22:29.966Z,12.78
2023-05-21T03:23:29.953Z,12.76
2023-05-21T03:24:29.938Z,12.76
2023-05-21T03:25:29.930Z,12.76
2023-05-21T03:26:29.893Z,12.76
2023-05-21T03:27:29.919Z,12.76
2023-05-21T03:28:29.928Z,12.75
2023-05-21T03:29:29.862Z,12.79
2023-05-21T03:30:29.868Z,12.79
2023-05-21T03:31:29.856Z,12.80
2023-05-21T03:32:29.883Z,12.80
2023-05-21T03:33:29.823Z,12.79
2023-05-21T03:34:29.823Z,12.79
2023-05-21T03:35:29.810Z,12.78
2023-05-21T03:36:29.813Z,12.78
2023-05-21T03:37:29.781Z,12.75
2023-05-21T03:38:29.783Z,12.73
2023-05-21T03:39:29.757Z,12.73
2023-05-21T03:40:29.767Z,12.75
2023-05-21T03:41:29.770Z,12.72
2023-05-21T03:42:29.751Z,12.72
2023-05-21T03:43:29.744Z,12.67
2023-05-21T03:44:29.700Z,12.62
2023-05-21T03:45:29.757Z,12.64
2023-05-21T03:46:29.752Z,12.64
2023-05-21T03:47:29.706Z,12.64
2023-05-21T03:48:29.753Z,12.65
2023-05-21T03:49:29.712Z,12.65
2023-05-21T03:50:29.670Z,12.65
2023-05-21T03:51:29.658Z,12.68
2023-05-21T03:52:29.653Z,12.68
2023-05-21T03:53:29.634Z,12.70
2023-05-21T03:54:29.599Z,12.68
2023-05-21T03:55:29.602Z,12.72
2023-05-21T03:56:29.621Z,12.75
2023-05-21T03:57:29.562Z,12.73
2023-05-21T03:58:29.579Z,12.76
2023-05-21T03:59:29.572Z,12.78
2023-05-21T04:00:29.549Z,12.83
2023-05-21T04:01:29.562Z,12.83
2023-05-21T04:02:29.600Z,12.80
2023-05-21T04:03:29.789Z,12.85
2023-05-21T04:04:29.620Z,12.83
2023-05-21T04:05:29.535Z,12.86
2023-05-21T04:06:29.555Z,12.87
2023-05-21T04:07:29.477Z,12.87
2023-05-21T04:08:29.519Z,12.91
2023-05-21T04:09:29.443Z,12.93
2023-05-21T04:10:29.448Z,12.94
2023-05-21T04:11:29.463Z,12.97
2023-05-21T04:12:29.509Z,12.97
2023-05-21T04:13:29.437Z,13.00
2023-05-21T04:14:29.426Z,13.01
2023-05-21T04:15:29.390Z,13.04
2023-05-21T04:16:29.451Z,13.05
2023-05-21T04:17:29.381Z,13.08
2023-05-21T04:18:29.396Z,13.09
2023-05-21T04:19:29.397Z,13.11
2023-05-21T04:20:29.326Z,13.11
2023-05-21T04:21:29.318Z,13.12
2023-05-21T04:22:29.349Z,13.13
2023-05-21T04:23:29.324Z,13.15
2023-05-21T04:24:29.302Z,13.16
2023-05-21T04:25:29.288Z,13.18
2023-05-21T04:26:29.262Z,13.19
2023-05-21T04:27:29.306Z,13.19
2023-05-21T04:28:29.251Z,13.19
2023-05-21T04:29:29.240Z,13.22
2023-05-21T04:30:29.230Z,13.22
2023-05-21T04:31:29.318Z,13.22
2023-05-21T04:32:29.273Z,13.20
2023-05-21T04:33:29.220Z,13.20
2023-05-21T04:34:29.204Z,13.22
2023-05-21T04:35:29.170Z,13.23
2023-05-21T04:36:29.172Z,13.23
2023-05-21T04:37:29.316Z,13.20
2023-05-21T04:38:29.212Z,13.23
2023-05-21T04:39:29.163Z,13.22
2023-05-21T04:40:29.131Z,13.23
2023-05-21T04:41:29.118Z,13.22
2023-05-21T04:42:29.132Z,13.25
2023-05-21T04:43:29.111Z,13.25
2023-05-21T04:44:29.099Z,13.23
2023-05-21T04:45:29.105Z,13.25
2023-05-21T04:46:29.125Z,13.25
2023-05-21T04:47:29.092Z,13.25
2023-05-21T04:48:29.078Z,13.25
2023-05-21T04:49:29.065Z,13.23
2023-05-21T04:50:29.054Z,13.25
2023-05-21T04:51:28.990Z,13.27
2023-05-21T04:52:29.064Z,13.25
2023-05-21T04:53:28.990Z,13.27
2023-05-21T04:54:28.994Z,13.27
2023-05-21T04:55:28.974Z,13.27
2023-05-21T04:56:28.979Z,13.30
2023-05-21T04:57:28.942Z,13.31
2023-05-21T04:58:29.018Z,13.33
2023-05-21T04:59:28.909Z,13.37
2023-05-21T05:00:28.972Z,13.33
2023-05-21T05:01:28.932Z,13.33
2023-05-21T05:02:29.068Z,13.31
2023-05-21T05:03:28.965Z,13.33
2023-05-21T05:04:28.894Z,13.35
2023-05-21T05:05:28.915Z,13.35
2023-05-21T05:06:28.856Z,13.37
2023-05-21T05:07:28.947Z,13.38
2023-05-21T05:08:28.888Z,13.39
2023-05-21T05:09:28.812Z,13.41
2023-05-21T05:10:28.867Z,13.44
2023-05-21T05:11:28.791Z,13.44
2023-05-21T05:12:28.787Z,13.46
2023-05-21T05:13:28.776Z,13.47
2023-05-21T05:14:28.778Z,13.49
2023-05-21T05:15:28.973Z,13.47
2023-05-21T05:16:28.771Z,13.50
2023-05-21T05:17:28.769Z,13.50
2023-05-21T05:18:28.770Z,13.50
2023-05-21T05:19:28.797Z,13.52
2023-05-21T05:20:28.716Z,13.52
2023-05-21T05:21:28.688Z,13.52
2023-05-21T05:22:28.687Z,13.53
2023-05-21T05:23:28.663Z,13.54
2023-05-21T05:24:28.683Z,13.59
2023-05-21T05:25:28.660Z,13.57
2023-05-21T05:26:28.665Z,13.57
2023-05-21T05:27:28.662Z,13.60
2023-05-21T05:28:29.270Z,13.62
2023-05-21T05:29:28.590Z,13.63
2023-05-21T05:30:28.632Z,13.65
2023-05-21T05:31:28.643Z,13.67
2023-05-21T05:32:28.591Z,13.68
2023-05-21T05:33:28.586Z,13.67
2023-05-21T05:34:28.565Z,13.71
2023-05-21T05:35:28.534Z,13.72
2023-05-21T05:36:28.527Z,13.72
2023-05-21T05:37:28.522Z,13.74
2023-05-21T05:38:28.540Z,13.72
2023-05-21T05:39:28.507Z,13.72
2023-05-21T05:40:28.511Z,13.74
2023-05-21T05:41:28.477Z,13.77
2023-05-21T05:42:28.489Z,13.78
2023-05-21T05:43:28.461Z,13.83
2023-05-21T05:44:28.443Z,13.87
2023-05-21T05:45:28.441Z,13.87
2023-05-21T05:46:28.442Z,13.90
2023-05-21T05:47:28.478Z,13.93
2023-05-21T05:48:28.407Z,13.96
2023-05-21T05:49:28.404Z,13.97
2023-05-21T05:50:28.397Z,14.00
2023-05-21T05:51:28.388Z,14.03
2023-05-21T05:52:28.373Z,14.08
2023-05-21T05:53:28.342Z,14.12
2023-05-21T05:54:28.343Z,14.12
2023-05-21T05:55:28.333Z,14.17
2023-05-21T05:56:28.319Z,14.17
2023-05-21T05:57:28.304Z,14.22
2023-05-21T05:58:28.304Z,14.20
2023-05-21T05:59:28.297Z,14.23
2023-05-21T06:00:28.297Z,14.25
2023-05-21T06:01:28.330Z,14.25
2023-05-21T06:02:28.341Z,14.22
2023-05-21T06:03:28.509Z,14.22
2023-05-21T06:04:28.238Z,14.22
2023-05-21T06:05:28.270Z,14.28
2023-05-21T06:06:28.259Z,14.29
2023-05-21T06:07:28.208Z,14.32
2023-05-21T06:08:28.234Z,14.33
2023-05-21T06:09:28.213Z,14.35
2023-05-21T06:10:28.211Z,14.40
2023-05-21T06:11:28.167Z,14.40
2023-05-21T06:12:28.154Z,14.43
2023-05-21T06:13:28.180Z,14.37
2023-05-21T06:14:28.196Z,14.40
2023-05-21T06:15:28.109Z,14.37
2023-05-21T06:16:28.149Z,14.45
2023-05-21T06:17:28.136Z,14.50
2023-05-21T06:18:28.127Z,14.54
2023-05-21T06:19:29.045Z,14.55
2023-05-21T06:20:28.111Z,14.55
2023-05-21T06:21:28.094Z,14.55
2023-05-21T06:22:28.145Z,14.55
2023-05-21T06:23:28.047Z,14.59
2023-05-21T06:24:28.087Z,14.63
2023-05-21T06:25:28.038Z,14.66
2023-05-21T06:26:28.035Z,14.60
2023-05-21T06:27:28.057Z,14.58
2023-05-21T06:28:27.999Z,14.59
2023-05-21T06:29:28.031Z,14.63
2023-05-21T06:30:27.982Z,14.68
2023-05-21T06:31:28.018Z,14.65
2023-05-21T06:32:28.110Z,14.70
2023-05-21T06:33:28.063Z,14.79
2023-05-21T06:34:27.932Z,14.84
2023-05-21T06:35:27.947Z,14.92
2023-05-21T06:36:28.005Z,14.94
2023-05-21T06:37:27.919Z,14.96
2023-05-21T06:38:27.900Z,14.96
2023-05-21T06:39:27.898Z,14.97
2023-05-21T06:40:27.910Z,14.97
2023-05-21T06:41:27.905Z,15.03
2023-05-21T06:42:27.853Z,15.07
2023-05-21T06:43:27.870Z,15.10
2023-05-21T06:44:27.834Z,15.17
2023-05-21T06:45:27.843Z,15.18
2023-05-21T06:46:27.933Z,15.24
2023-05-21T06:47:27.859Z,15.28
2023-05-21T06:48:27.813Z,15.33
2023-05-21T06:49:27.833Z,15.37
2023-05-21T06:50:27.824Z,15.37
2023-05-21T06:51:27.794Z,15.29
2023-05-21T06:52:27.762Z,15.28
2023-05-21T06:53:27.750Z,15.31
2023-05-21T06:54:27.721Z,15.29
2023-05-21T06:55:27.756Z,15.33
2023-05-21T06:56:27.701Z,15.33
2023-05-21T06:57:27.724Z,15.33
2023-05-21T06:58:27.739Z,15.35
2023-05-21T06:59:27.690Z,15.36
2023-05-21T07:00:27.721Z,15.40
2023-05-21T07:01:27.695Z,15.43
2023-05-21T07:02:27.765Z,15.46
2023-05-21T07:03:27.729Z,15.51
2023-05-21T07:04:27.648Z,15.42
2023-05-21T07:05:27.649Z,15.40
2023-05-21T07:06:27.603Z,15.43
2023-05-21T07:07:27.607Z,15.47
2023-05-21T07:08:27.566Z,15.52
2023-05-21T07:09:27.581Z,15.58
2023-05-21T07:10:27.580Z,15.58
2023-05-21T07:11:27.576Z,15.59
2023-05-21T07:12:27.540Z,15.65
2023-05-21T07:13:27.516Z,15.67
2023-05-21T07:14:27.501Z,15.76
2023-05-21T07:15:27.518Z,15.83
2023-05-21T07:16:27.533Z,15.83
2023-05-21T07:17:27.529Z,15.86
2023-05-21T07:18:27.535Z,15.94
2023-05-21T07:19:27.576Z,16.01
2023-05-21T07:20:27.467Z,16.05
2023-05-21T07:21:27.456Z,16.09
2023-05-21T07:22:28.504Z,16.21
2023-05-21T07:23:27.473Z,16.28
2023-05-21T07:24:27.547Z,16.32
2023-05-21T07:25:27.433Z,16.41
2023-05-21T07:26:27.390Z,16.39
2023-05-21T07:27:27.391Z,16.43
2023-05-21T07:28:27.367Z,16.43
2023-05-21T07:29:27.386Z,16.54
2023-05-21T07:30:27.377Z,16.60
2023-05-21T07:31:27.452Z,16.61
2023-05-21T07:32:27.366Z,16.61
2023-05-21T07:33:27.315Z,16.71
2023-05-21T07:34:27.368Z,16.74
2023-05-21T07:35:27.289Z,16.83
2023-05-21T07:36:27.302Z,16.89
2023-05-21T07:37:27.372Z,16.91
2023-05-21T07:38:27.273Z,16.94
2023-05-21T07:39:27.267Z,16.93
2023-05-21T07:40:27.250Z,17.06
2023-05-21T07:41:27.251Z,17.15
2023-05-21T07:42:27.230Z,17.30
2023-05-21T07:43:27.245Z,17.46
2023-05-21T07:44:27.312Z,17.64
2023-05-21T07:45:27.299Z,17.76
2023-05-21T07:46:27.231Z,17.86
2023-05-21T07:47:27.183Z,17.89
2023-05-21T07:48:27.183Z,17.83
2023-05-21T07:49:27.192Z,17.80
2023-05-21T07:50:27.146Z,17.83
2023-05-21T07:51:27.122Z,17.83
2023-05-21T07:52:27.120Z,17.85
2023-05-21T07:53:27.116Z,17.87
2023-05-21T07:54:27.114Z,17.83
2023-05-21T07:55:27.121Z,17.83
2023-05-21T07:56:27.066Z,17.79
2023-05-21T07:57:27.080Z,17.71
2023-05-21T07:58:27.073Z,17.70
2023-05-21T07:59:27.066Z,17.72
2023-05-21T08:00:27.028Z,17.76
2023-05-21T08:01:27.082Z,17.71
2023-05-21T08:02:27.087Z,17.65
2023-05-21T08:03:27.200Z,17.59
2023-05-21T08:04:27.052Z,17.56
2023-05-21T08:05:26.979Z,17.49
2023-05-21T08:06:26.945Z,17.57
2023-05-21T08:07:26.976Z,17.68
2023-05-21T08:08:26.968Z,17.85
2023-05-21T08:09:26.934Z,17.92
2023-05-21T08:10:26.910Z,17.97
2023-05-21T08:11:26.954Z,18.01
2023-05-21T08:12:26.915Z,18.05
2023-05-21T08:13:26.879Z,18.13
2023-05-21T08:14:26.861Z,18.22
2023-05-21T08:15:26.864Z,18.29
2023-05-21T08:16:26.994Z,18.29
2023-05-21T08:17:26.860Z,18.22
2023-05-21T08:18:26.896Z,18.28
2023-05-21T08:19:26.860Z,18.33
2023-05-21T08:20:26.843Z,18.34
2023-05-21T08:21:26.837Z,18.28
2023-05-21T08:22:26.803Z,18.35
2023-05-21T08:23:26.791Z,18.47
2023-05-21T08:24:26.762Z,18.58
2023-05-21T08:25:26.799Z,18.55
2023-05-21T08:26:26.958Z,18.60
2023-05-21T08:27:26.766Z,18.62
2023-05-21T08:28:26.731Z,18.65
2023-05-21T08:29:26.714Z,18.70
2023-05-21T08:30:26.690Z,18.84
2023-05-21T08:31:26.747Z,18.74
2023-05-21T08:32:26.734Z,18.73
2023-05-21T08:33:26.686Z,18.66
2023-05-21T08:34:26.681Z,18.68
2023-05-21T08:35:26.676Z,18.68
2023-05-21T08:36:26.668Z,18.66
2023-05-21T08:37:26.657Z,18.77
2023-05-21T08:38:28.812Z,18.89
2023-05-21T08:39:26.644Z,18.93
2023-05-21T08:40:26.666Z,19.02
2023-05-21T08:41:26.602Z,18.99
2023-05-21T08:42:36.200Z,18.81
2023-05-21T08:43:26.647Z,18.70
2023-05-21T08:44:26.599Z,18.73
2023-05-21T08:45:26.623Z,18.66
2023-05-21T08:46:26.662Z,18.68
2023-05-21T08:47:26.595Z,18.73
2023-05-21T08:48:26.585Z,18.74
2023-05-21T08:49:27.319Z,18.70
2023-05-21T08:50:26.517Z,18.77
2023-05-21T08:51:26.487Z,18.86
2023-05-21T08:52:26.497Z,18.86
2023-05-21T08:53:28.578Z,18.93
2023-05-21T08:54:26.449Z,18.92
2023-05-21T08:55:27.015Z,18.86
2023-05-21T08:56:26.470Z,18.75
2023-05-21T08:57:26.452Z,18.63
2023-05-21T08:58:26.471Z,18.65
2023-05-21T08:59:26.441Z,18.62
2023-05-21T09:00:26.397Z,18.63
2023-05-21T09:01:26.766Z,18.65
2023-05-21T09:02:26.668Z,18.70
2023-05-21T09:03:26.548Z,18.78
2023-05-21T09:04:26.434Z,18.89
2023-05-21T09:05:26.353Z,18.96
2023-05-21T09:06:26.328Z,19.07
2023-05-21T09:07:26.375Z,19.11
2023-05-21T09:08:26.405Z,19.12
2023-05-21T09:09:26.331Z,19.15
2023-05-21T09:10:26.303Z,19.08
2023-05-21T09:11:26.287Z,19.09
2023-05-21T09:12:26.279Z,19.04
2023-05-21T09:13:26.302Z,18.99
2023-05-21T09:14:26.256Z,19.04
2023-05-21T09:15:26.239Z,19.09
2023-05-21T09:16:26.236Z,19.08
2023-05-21T09:17:26.307Z,19.09
2023-05-21T09:18:26.208Z,19.22
2023-05-21T09:19:26.319Z,19.34
2023-05-21T09:20:26.190Z,19.41
2023-05-21T09:21:26.252Z,19.49
2023-05-21T09:22:26.159Z,19.52
2023-05-21T09:23:26.167Z,19.58
2023-05-21T09:24:26.135Z,19.66
2023-05-21T09:25:26.184Z,19.59
2023-05-21T09:26:26.152Z,19.47
2023-05-21T09:27:26.140Z,19.39
2023-05-21T09:28:26.119Z,19.26
2023-05-21T09:29:26.164Z,19.22
2023-05-21T09:30:34.858Z,19.24
2023-05-21T09:31:26.145Z,19.27
2023-05-21T09:32:26.155Z,19.26
2023-05-21T09:33:26.077Z,19.31
2023-05-21T09:34:26.034Z,19.39
2023-05-21T09:35:26.044Z,19.41
2023-05-21T09:36:26.027Z,19.45
2023-05-21T09:37:27.554Z,19.48
2023-05-21T09:38:26.002Z,19.39
2023-05-21T09:39:26.019Z,19.37
2023-05-21T09:40:25.995Z,19.34
2023-05-21T09:41:25.990Z,19.36
2023-05-21T09:42:25.971Z,19.33
2023-05-21T09:43:25.993Z,19.31
2023-05-21T09:44:25.955Z,19.26
2023-05-21T09:45:25.914Z,19.27
2023-05-21T09:46:25.956Z,19.27
2023-05-21T09:47:26.071Z,19.34
2023-05-21T09:48:25.912Z,19.41
2023-05-21T09:49:26.725Z,19.48
2023-05-21T09:50:25.860Z,19.49
2023-05-21T09:51:25.889Z,19.52
2023-05-21T09:52:25.903Z,19.59
2023-05-21T09:53:25.883Z,19.69
2023-05-21T09:54:25.867Z,19.79
2023-05-21T09:55:25.870Z,19.89
2023-05-21T09:56:25.806Z,19.99
2023-05-21T09:57:25.850Z,20.06
2023-05-21T09:58:25.807Z,20.10
2023-05-21T09:59:25.801Z,20.04
2023-05-21T10:00:26.525Z,19.95
2023-05-21T10:01:25.774Z,19.95
2023-05-21T10:02:25.791Z,20.03
2023-05-21T10:03:25.764Z,20.04
2023-05-21T10:04:25.787Z,20.00
2023-05-21T10:05:25.765Z,19.99
2023-05-21T10:06:25.759Z,19.96
2023-05-21T10:07:25.737Z,20.02
2023-05-21T10:08:25.966Z,20.09
2023-05-21T10:09:25.663Z,20.10
2023-05-21T10:10:25.647Z,20.18
2023-05-21T10:11:25.672Z,20.29
2023-05-21T10:12:25.630Z,20.37
2023-05-21T10:13:25.640Z,20.34
2023-05-21T10:14:25.638Z,20.40
2023-05-21T10:15:25.762Z,20.51
2023-05-21T10:16:25.680Z,20.56
2023-05-21T10:17:25.694Z,20.47
2023-05-21T10:18:25.593Z,20.50
2023-05-21T10:19:25.649Z,20.41
2023-05-21T10:20:25.562Z,20.43
2023-05-21T10:21:25.550Z,20.47
2023-05-21T10:22:25.585Z,20.44
2023-05-21T10:23:25.588Z,20.50
2023-05-21T10:24:25.515Z,20.50
2023-05-21T10:25:25.491Z,20.50
2023-05-21T10:26:25.485Z,20.41
2023-05-21T10:27:25.482Z,20.52
2023-05-21T10:28:25.502Z,20.59
2023-05-21T10:29:25.465Z,20.50
2023-05-21T10:30:25.480Z,20.48
2023-05-21T10:31:25.438Z,20.41
2023-05-21T10:32:25.557Z,20.41
2023-05-21T10:33:26.138Z,20.37
2023-05-21T10:34:25.434Z,20.26
2023-05-21T10:35:25.417Z,20.26
2023-05-21T10:36:25.420Z,20.36
2023-05-21T10:37:25.383Z,20.44
2023-05-21T10:38:25.376Z,20.55
2023-05-21T10:39:25.448Z,20.65
2023-05-21T10:40:25.397Z,20.75
2023-05-21T10:41:25.365Z,20.81
2023-05-21T10:42:25.325Z,20.90
2023-05-21T10:43:25.328Z,20.92
2023-05-21T10:44:25.300Z,20.84
2023-05-21T10:45:25.342Z,20.69
2023-05-21T10:46:25.301Z,20.55
2023-05-21T10:47:25.318Z,20.56
2023-05-21T10:48:25.253Z,20.50
2023-05-21T10:49:25.239Z,20.56
2023-05-21T10:50:25.277Z,20.66
2023-05-21T10:51:25.883Z,20.74
2023-05-21T10:52:25.230Z,20.81
2023-05-21T10:53:25.196Z,20.72
2023-05-21T10:54:25.219Z,20.75
2023-05-21T10:55:25.213Z,20.78
2023-05-21T10:56:25.210Z,20.81
2023-05-21T10:57:25.203Z,20.84
2023-05-21T10:58:25.174Z,20.92
2023-05-21T10:59:25.177Z,20.96
2023-05-21T11:00:25.281Z,20.84
2023-05-21T11:01:25.151Z,20.78
2023-05-21T11:02:25.196Z,20.87
2023-05-21T11:03:25.242Z,20.85
2023-05-21T11:04:25.125Z,20.92
2023-05-21T11:05:25.084Z,20.95
2023-05-21T11:06:25.115Z,21.03
2023-05-21T11:07:25.141Z,21.11
2023-05-21T11:08:25.062Z,21.22
2023-05-21T11:09:25.057Z,21.30
2023-05-21T11:10:25.085Z,21.40
2023-05-21T11:11:25.012Z,21.55
2023-05-21T11:12:24.997Z,21.51
2023-05-21T11:13:25.009Z,21.48
2023-05-21T11:14:24.976Z,21.50
2023-05-21T11:15:24.999Z,21.46
2023-05-21T11:16:25.044Z,21.39
2023-05-21T11:17:24.972Z,21.54
2023-05-21T11:18:24.980Z,21.66
2023-05-21T11:19:24.958Z,21.79
2023-05-21T11:20:24.924Z,21.88
2023-05-21T11:21:24.897Z,21.91
2023-05-21T11:22:24.961Z,21.88
2023-05-21T11:23:24.911Z,21.95
2023-05-21T11:24:24.879Z,21.99
2023-05-21T11:25:24.901Z,21.96
2023-05-21T11:26:24.874Z,22.00
2023-05-21T11:27:24.836Z,22.10
2023-05-21T11:28:24.859Z,22.15
2023-05-21T11:29:24.832Z,22.23
2023-05-21T11:30:24.798Z,22.08
2023-05-21T11:31:24.824Z,22.13
2023-05-21T11:32:24.864Z,22.20
2023-05-21T11:33:24.844Z,22.20
2023-05-21T11:34:24.825Z,22.28
2023-05-21T11:35:24.781Z,22.18
2023-05-21T11:36:24.773Z,22.22
2023-05-21T11:37:24.748Z,22.23
2023-05-21T11:38:24.775Z,22.22
2023-05-21T11:39:24.704Z,22.23
2023-05-21T11:40:24.727Z,22.22
2023-05-21T11:41:24.685Z,22.29
2023-05-21T11:42:24.676Z,22.35
2023-05-21T11:43:24.669Z,22.30
2023-05-21T11:44:24.675Z,22.28
2023-05-21T11:45:24.649Z,22.28
2023-05-21T11:46:24.721Z,22.28
2023-05-21T11:47:24.727Z,22.28
2023-05-21T11:48:27.081Z,22.18
2023-05-21T11:49:24.659Z,22.22
2023-05-21T11:50:24.644Z,22.17
2023-05-21T11:51:24.691Z,22.14
2023-05-21T11:52:24.706Z,22.04
2023-05-21T11:53:24.575Z,21.98
2023-05-21T11:54:24.552Z,22.04
2023-05-21T11:55:24.529Z,22.02
2023-05-21T11:56:24.598Z,22.04
2023-05-21T11:57:24.520Z,22.11
2023-05-21T11:58:24.529Z,22.13
2023-05-21T11:59:24.503Z,22.15
2023-05-21T12:00:24.560Z,22.25
2023-05-21T12:01:24.479Z,22.26
2023-05-21T12:02:24.498Z,22.20
2023-05-21T12:03:24.502Z,22.28
2023-05-21T12:04:24.492Z,22.33
2023-05-21T12:05:24.482Z,22.38
2023-05-21T12:06:24.532Z,22.45
2023-05-21T12:07:24.409Z,22.41
2023-05-21T12:08:24.402Z,22.35
2023-05-21T12:09:24.455Z,22.35
2023-05-21T12:10:24.525Z,22.33
2023-05-21T12:11:24.386Z,22.35
2023-05-21T12:12:24.362Z,22.44
2023-05-21T12:13:24.357Z,22.55
2023-05-21T12:14:24.424Z,22.60
2023-05-21T12:15:24.366Z,22.54
2023-05-21T12:16:24.366Z,22.47
2023-05-21T12:17:24.355Z,22.47
2023-05-21T12:18:24.313Z,22.44
2023-05-21T12:19:24.330Z,22.47
2023-05-21T12:20:24.307Z,22.51
2023-05-21T12:21:24.289Z,22.53
2023-05-21T12:22:24.292Z,22.55
2023-05-21T12:23:24.259Z,22.63
2023-05-21T12:24:24.287Z,22.68
2023-05-21T12:25:24.265Z,22.73
2023-05-21T12:26:24.242Z,22.84
2023-05-21T12:27:24.201Z,22.81
2023-05-21T12:28:24.223Z,22.65
2023-05-21T12:29:24.192Z,22.63
2023-05-21T12:30:24.195Z,22.51
2023-05-21T12:31:24.189Z,22.43
2023-05-21T12:32:24.213Z,22.39
2023-05-21T12:33:25.188Z,22.45
2023-05-21T12:34:24.126Z,22.53
2023-05-21T12:35:24.661Z,22.48
2023-05-21T12:36:24.172Z,22.48
2023-05-21T12:37:24.169Z,22.48
2023-05-21T12:38:24.101Z,22.55
2023-05-21T12:39:24.098Z,22.59
2023-05-21T12:40:24.085Z,22.55
2023-05-21T12:41:24.075Z,22.47
2023-05-21T12:42:24.078Z,22.35
2023-05-21T12:43:24.082Z,22.30
2023-05-21T12:44:24.049Z,22.25
2023-05-21T12:45:24.020Z,22.17
2023-05-21T12:46:24.024Z,22.18
2023-05-21T12:47:24.037Z,22.26
2023-05-21T12:48:24.018Z,22.36
2023-05-21T12:49:24.006Z,22.44
2023-05-21T12:50:23.963Z,22.57
2023-05-21T12:51:24.002Z,22.66
2023-05-21T12:52:23.970Z,22.75